Rockford, IL

5:03 AM CST on November 24, 2017 (GMT -0600)
Greater Rockford | | Change Station

Elev 741 ft 42.20 °N, 89.10 °W | Updated 9 minutes ago

Mostly Cloudy
Mostly Cloudy
35 °F
Feels Like 30 °F
N
6
Wind Variable Wind from South

Today
High -- | Low -- °F
--% Chance of Precip.
Yesterday
High -- | Low -- °F
Precip. -- in
Pressure 29.80 in
Visibility 10.0 miles
Clouds Few 25000 ft
Windchill 30 °F
Dew Point 28 °F
Humidity 76%
Rainfall 0.00 in
Snow Depth Not available.
6:57 AM 4:28 PM
Waxing Crescent, 29% visible
METAR KRFD 241054Z 19005KT 10SM FEW250 02/M02 A2978 RMK AO2 SLP089 T00171022 $
Pressure 29.80 in
Visibility 10.0 miles
Clouds Few 25000 ft
Windchill 30 °F
Dew Point 28 °F
Humidity 76%
Rainfall 0.00 in
Snow Depth Not available.
6:57 AM 4:28 PM
Waxing Crescent, 29% visible
METAR KRFD 241054Z 19005KT 10SM FEW250 02/M02 A2978 RMK AO2 SLP089 T00171022 $

Get Severe Weather Alerts

Thanks for signing up!

Be on the lookout for a verification email in your inbox.

You'll start receiving the daily forecast at 6 AM.

×

10-Day Weather Forecast

Almanac

Astronomy

Nov. 24, 2017 Rise Set
Actual Time
Civil Twilight
Nautical Twilight
Astronomical Twilight
Moon
Length of Visible Light
Length of Day
Tomorrow will be .
, % of the Moon is Illuminated

Today's Extremes

State Highs State Lows

Community

WunderPhotos

Category 6

Welcome to Category 6. This is the collective home for Weather Underground's featured writeups by Dr. Jeff Masters (right), Bob Henson (left), Chris Burt, and other regular contributors.

Nearby

Air Quality

  Air Quality AQ Index Pollutant
Not available.

Snow Depth

Station Depth Elevation

Earthquake Activity

City Distance Mag. Time & Date
Minimum magnitude displayed is 2.5.

Coastal Water Temperatures

Place Temperature

Stations

Nearby Weather Stations

Station Location Temp. Windchill Dew Point Humidity Wind Precip. Elev Updated Type
                   

Watches & Warnings

There are currently no watches in effect.